首页
METAR-TAF:

METAR-TAF

机场 :

伯靈頓, 佛蒙特州, 美国

纬度: 44-28-05N, 经度: 073-09-01W, 海拔: 101米

当前天气观测

该预报发布于1小时和8分钟前的13:54 UTC
风速19节,风向东南,有时为30节阵风
温度 20°C
湿度 73%
气压 1009 hPa
能見度: 16.1公里
少量云层高于2700英尺
散云层高于8000英尺
多云层高于11000英尺

METAR: KBTV 271354Z 14019G30KT 10SM FEW027 SCT080 BKN110 20/15 A2981 RMK AO2 PK WND 14030/1346 RAB15E39 SLP095 P0001 T02000150

时间: 11:02 (15:02 UTC)

预报

该预报发布于3小时和32分钟前的11:30 UTC
预报有效从27日的 12点(UTC)到 28日的 12点(UTC)
风速15节,风向东南,有时为22节阵风
能見度: 10公里
散云层高于7000英尺
多云层高于10000英尺
从 27日的 1500点(UTC)
风速20节,风向南转南东,有时为29节阵风
能見度: 10公里
多云层高于2500英尺
从 27日的 2300点(UTC)
风速19节,风向南转南东,有时为26节阵风
能見度: 8.0公里
阴天层高于2500英尺
小阵雨, 轻雾
从 28日的 0500点(UTC)
风速11节,风向
能見度: 10公里
阴天层高于3000英尺
附近有阵雨,

TAF: KBTV 271130Z 2712/2812 13015G22KT P6SM SCT070 BKN100 FM271500 16020G29KT P6SM BKN025 FM272300 16019G26KT 5SM -SHRA BR OVC025 WS020/17055KT FM280500 19011KT P6SM VCSH OVC030

超过4000个机场的气象观测和天气预报(METAR&TAF报告)。

可查询的气象台以黄色和红色小点在地图上表示。

将鼠标移到小点上方,可查看气象台名称。

然后点击查看天气观测和预报。

如需切换地图:点击带黑十字的绿色按钮放大地图;点击带横线的绿色按钮缩小地图;或者点击绿色箭头查看邻近地区的地图。


METAR-TAF: